sensor_id;sensor_type;location;lat;lon;timestamp;temperature;humidity
44271;DHT22;29963;44.594;11.368;2022-11-27T00:00:24;6.90;99.90
44271;DHT22;29963;44.594;11.368;2022-11-27T00:02:49;6.90;99.90
44271;DHT22;29963;44.594;11.368;2022-11-27T00:05:15;6.90;99.90
44271;DHT22;29963;44.594;11.368;2022-11-27T00:07:41;6.90;99.90
44271;DHT22;29963;44.594;11.368;2022-11-27T00:10:07;6.90;99.90
44271;DHT22;29963;44.594;11.368;2022-11-27T00:12:33;6.90;99.90
44271;DHT22;29963;44.594;11.368;2022-11-27T00:14:59;6.90;99.90
44271;DHT22;29963;44.594;11.368;2022-11-27T00:17:24;6.90;99.90
44271;DHT22;29963;44.594;11.368;2022-11-27T00:19:50;6.90;99.90
44271;DHT22;29963;44.594;11.368;2022-11-27T00:22:15;6.90;99.90
44271;DHT22;29963;44.594;11.368;2022-11-27T00:24:42;6.80;99.90
44271;DHT22;29963;44.594;11.368;2022-11-27T00:27:08;6.80;99.90
44271;DHT22;29963;44.594;11.368;2022-11-27T00:29:34;6.80;99.90
44271;DHT22;29963;44.594;11.368;2022-11-27T00:32:00;6.80;99.90
44271;DHT22;29963;44.594;11.368;2022-11-27T00:34:25;6.80;99.90
44271;DHT22;29963;44.594;11.368;2022-11-27T00:36:51;6.70;99.90
44271;DHT22;29963;44.594;11.368;2022-11-27T00:39:17;6.70;99.90
44271;DHT22;29963;44.594;11.368;2022-11-27T00:41:43;6.60;99.90
44271;DHT22;29963;44.594;11.368;2022-11-27T00:44:09;6.60;99.90
44271;DHT22;29963;44.594;11.368;2022-11-27T00:46:35;6.60;99.90
44271;DHT22;29963;44.594;11.368;2022-11-27T00:49:03;6.60;99.90
44271;DHT22;29963;44.594;11.368;2022-11-27T00:51:29;6.50;99.90
44271;DHT22;29963;44.594;11.368;2022-11-27T00:53:55;6.50;99.90
44271;DHT22;29963;44.594;11.368;2022-11-27T00:56:25;6.50;99.90
44271;DHT22;29963;44.594;11.368;2022-11-27T00:58:51;6.40;99.90
44271;DHT22;29963;44.594;11.368;2022-11-27T01:01:19;6.50;99.90
44271;DHT22;29963;44.594;11.368;2022-11-27T01:03:46;6.50;99.90
44271;DHT22;29963;44.594;11.368;2022-11-27T01:06:13;6.50;99.90
44271;DHT22;29963;44.594;11.368;2022-11-27T01:08:40;6.50;99.90
44271;DHT22;29963;44.594;11.368;2022-11-27T01:11:06;6.50;99.90
44271;DHT22;29963;44.594;11.368;2022-11-27T01:13:35;6.50;99.90
44271;DHT22;29963;44.594;11.368;2022-11-27T01:16:07;6.50;99.90
44271;DHT22;29963;44.594;11.368;2022-11-27T01:18:33;6.50;99.90
44271;DHT22;29963;44.594;11.368;2022-11-27T01:21:00;6.50;99.90
44271;DHT22;29963;44.594;11.368;2022-11-27T01:23:26;6.50;99.90
44271;DHT22;29963;44.594;11.368;2022-11-27T01:25:52;6.50;99.90
44271;DHT22;29963;44.594;11.368;2022-11-27T01:28:19;6.50;99.90
44271;DHT22;29963;44.594;11.368;2022-11-27T01:30:45;6.40;99.90
44271;DHT22;29963;44.594;11.368;2022-11-27T01:33:11;6.40;99.90
44271;DHT22;29963;44.594;11.368;2022-11-27T01:35:36;6.20;99.90
44271;DHT22;29963;44.594;11.368;2022-11-27T01:38:02;6.10;99.90
44271;DHT22;29963;44.594;11.368;2022-11-27T01:40:28;6.10;99.90
44271;DHT22;29963;44.594;11.368;2022-11-27T01:42:54;6.10;99.90
44271;DHT22;29963;44.594;11.368;2022-11-27T01:45:21;6.10;99.90
44271;DHT22;29963;44.594;11.368;2022-11-27T01:47:55;6.10;99.90
44271;DHT22;29963;44.594;11.368;2022-11-27T01:50:28;6.20;99.90
44271;DHT22;29963;44.594;11.368;2022-11-27T01:52:58;6.30;99.90
44271;DHT22;29963;44.594;11.368;2022-11-27T01:55:36;6.30;99.90
44271;DHT22;29963;44.594;11.368;2022-11-27T01:58:14;6.30;99.90
44271;DHT22;29963;44.594;11.368;2022-11-27T02:00:41;6.30;99.90
44271;DHT22;29963;44.594;11.368;2022-11-27T02:03:07;6.30;99.90
44271;DHT22;29963;44.594;11.368;2022-11-27T02:05:33;6.30;99.90
44271;DHT22;29963;44.594;11.368;2022-11-27T02:08:03;6.30;99.90
44271;DHT22;29963;44.594;11.368;2022-11-27T02:13:08;6.40;99.90
44271;DHT22;29963;44.594;11.368;2022-11-27T02:18:20;6.50;99.90
44271;DHT22;29963;44.594;11.368;2022-11-27T02:24:16;6.50;99.90
44271;DHT22;29963;44.594;11.368;2022-11-27T02:29:27;6.40;99.90
44271;DHT22;29963;44.594;11.368;2022-11-27T02:32:07;6.40;99.90
44271;DHT22;29963;44.594;11.368;2022-11-27T02:35:15;6.40;99.90
44271;DHT22;29963;44.594;11.368;2022-11-27T02:37:49;6.40;99.90
44271;DHT22;29963;44.594;11.368;2022-11-27T02:40:29;6.40;99.90
44271;DHT22;29963;44.594;11.368;2022-11-27T02:43:02;6.40;99.90
44271;DHT22;29963;44.594;11.368;2022-11-27T02:45:45;6.40;99.90
44271;DHT22;29963;44.594;11.368;2022-11-27T02:48:13;6.30;99.90
44271;DHT22;29963;44.594;11.368;2022-11-27T02:50:42;6.20;99.90
44271;DHT22;29963;44.594;11.368;2022-11-27T02:53:18;6.20;99.90
44271;DHT22;29963;44.594;11.368;2022-11-27T02:55:45;6.20;99.90
44271;DHT22;29963;44.594;11.368;2022-11-27T02:58:16;6.20;99.90
44271;DHT22;29963;44.594;11.368;2022-11-27T03:00:42;6.20;99.90
44271;DHT22;29963;44.594;11.368;2022-11-27T03:03:12;6.10;99.90
44271;DHT22;29963;44.594;11.368;2022-11-27T03:05:42;6.00;99.90
44271;DHT22;29963;44.594;11.368;2022-11-27T03:08:31;5.90;99.90
44271;DHT22;29963;44.594;11.368;2022-11-27T03:11:04;5.90;99.90
44271;DHT22;29963;44.594;11.368;2022-11-27T03:13:36;5.90;99.90
44271;DHT22;29963;44.594;11.368;2022-11-27T03:18:57;6.00;99.90
44271;DHT22;29963;44.594;11.368;2022-11-27T03:21:33;6.00;99.90
44271;DHT22;29963;44.594;11.368;2022-11-27T03:24:01;6.00;99.90
44271;DHT22;29963;44.594;11.368;2022-11-27T03:26:27;5.90;99.90
44271;DHT22;29963;44.594;11.368;2022-11-27T03:28:54;5.90;99.90
44271;DHT22;29963;44.594;11.368;2022-11-27T03:31:21;5.90;99.90
44271;DHT22;29963;44.594;11.368;2022-11-27T03:33:48;5.90;99.90
44271;DHT22;29963;44.594;11.368;2022-11-27T03:36:16;5.90;99.90
44271;DHT22;29963;44.594;11.368;2022-11-27T03:38:44;5.90;99.90
44271;DHT22;29963;44.594;11.368;2022-11-27T03:46:38;5.90;99.90
44271;DHT22;29963;44.594;11.368;2022-11-27T04:00:00;5.90;99.90
44271;DHT22;29963;44.594;11.368;2022-11-27T04:02:29;5.90;99.90
44271;DHT22;29963;44.594;11.368;2022-11-27T04:04:56;5.90;99.90
44271;DHT22;29963;44.594;11.368;2022-11-27T04:07:22;5.90;99.90
44271;DHT22;29963;44.594;11.368;2022-11-27T04:09:47;5.80;99.90
44271;DHT22;29963;44.594;11.368;2022-11-27T04:12:13;5.80;99.90
44271;DHT22;29963;44.594;11.368;2022-11-27T04:14:38;5.80;99.90
44271;DHT22;29963;44.594;11.368;2022-11-27T04:17:04;5.70;99.90
44271;DHT22;29963;44.594;11.368;2022-11-27T04:19:30;5.70;99.90
44271;DHT22;29963;44.594;11.368;2022-11-27T04:21:55;5.70;99.90
44271;DHT22;29963;44.594;11.368;2022-11-27T04:24:21;5.60;99.90
44271;DHT22;29963;44.594;11.368;2022-11-27T04:26:46;5.60;99.90
44271;DHT22;29963;44.594;11.368;2022-11-27T04:29:12;5.50;99.90
44271;DHT22;29963;44.594;11.368;2022-11-27T04:31:38;5.50;99.90
44271;DHT22;29963;44.594;11.368;2022-11-27T04:34:03;5.60;99.90
44271;DHT22;29963;44.594;11.368;2022-11-27T04:36:29;5.50;99.90
44271;DHT22;29963;44.594;11.368;2022-11-27T04:38:54;5.50;99.90
44271;DHT22;29963;44.594;11.368;2022-11-27T04:41:20;5.50;99.90
44271;DHT22;29963;44.594;11.368;2022-11-27T04:43:45;5.50;99.90
44271;DHT22;29963;44.594;11.368;2022-11-27T04:46:11;5.50;99.90
44271;DHT22;29963;44.594;11.368;2022-11-27T04:48:37;5.40;99.90
44271;DHT22;29963;44.594;11.368;2022-11-27T04:51:02;5.30;99.90
44271;DHT22;29963;44.594;11.368;2022-11-27T04:53:28;5.30;99.90
44271;DHT22;29963;44.594;11.368;2022-11-27T04:55:54;5.30;99.90
44271;DHT22;29963;44.594;11.368;2022-11-27T04:58:19;5.30;99.90
44271;DHT22;29963;44.594;11.368;2022-11-27T05:00:45;5.30;99.90
44271;DHT22;29963;44.594;11.368;2022-11-27T05:03:10;5.30;99.90
44271;DHT22;29963;44.594;11.368;2022-11-27T05:05:36;5.30;99.90
44271;DHT22;29963;44.594;11.368;2022-11-27T05:08:02;5.20;99.90
44271;DHT22;29963;44.594;11.368;2022-11-27T05:10:28;5.20;99.90
44271;DHT22;29963;44.594;11.368;2022-11-27T05:12:54;5.20;99.90
44271;DHT22;29963;44.594;11.368;2022-11-27T05:15:19;5.10;99.90
44271;DHT22;29963;44.594;11.368;2022-11-27T05:17:45;5.10;99.90
44271;DHT22;29963;44.594;11.368;2022-11-27T05:20:10;5.10;99.90
44271;DHT22;29963;44.594;11.368;2022-11-27T05:22:36;5.00;99.90
44271;DHT22;29963;44.594;11.368;2022-11-27T05:25:02;5.00;99.90
44271;DHT22;29963;44.594;11.368;2022-11-27T05:27:28;4.80;99.90
44271;DHT22;29963;44.594;11.368;2022-11-27T05:29:53;4.80;99.90
44271;DHT22;29963;44.594;11.368;2022-11-27T05:32:19;4.80;99.90
44271;DHT22;29963;44.594;11.368;2022-11-27T05:34:44;4.80;99.90
44271;DHT22;29963;44.594;11.368;2022-11-27T05:37:10;4.80;99.90
44271;DHT22;29963;44.594;11.368;2022-11-27T05:39:37;4.70;99.90
44271;DHT22;29963;44.594;11.368;2022-11-27T05:42:03;4.70;99.90
44271;DHT22;29963;44.594;11.368;2022-11-27T05:44:28;4.70;99.90
44271;DHT22;29963;44.594;11.368;2022-11-27T05:46:54;4.70;99.90
44271;DHT22;29963;44.594;11.368;2022-11-27T05:49:21;4.70;99.90
44271;DHT22;29963;44.594;11.368;2022-11-27T05:51:47;4.60;99.90
44271;DHT22;29963;44.594;11.368;2022-11-27T05:54:12;4.60;99.90
44271;DHT22;29963;44.594;11.368;2022-11-27T05:56:38;4.60;99.90
44271;DHT22;29963;44.594;11.368;2022-11-27T05:59:03;4.70;99.90
44271;DHT22;29963;44.594;11.368;2022-11-27T06:01:29;4.70;99.90
44271;DHT22;29963;44.594;11.368;2022-11-27T06:03:55;4.70;99.90
44271;DHT22;29963;44.594;11.368;2022-11-27T06:06:20;4.70;99.90
44271;DHT22;29963;44.594;11.368;2022-11-27T06:08:46;4.80;99.90
44271;DHT22;29963;44.594;11.368;2022-11-27T06:11:15;4.80;99.90
44271;DHT22;29963;44.594;11.368;2022-11-27T06:13:42;4.80;99.90
44271;DHT22;29963;44.594;11.368;2022-11-27T06:16:14;4.80;99.90
44271;DHT22;29963;44.594;11.368;2022-11-27T06:18:40;4.70;99.90
44271;DHT22;29963;44.594;11.368;2022-11-27T06:21:13;4.70;99.90
44271;DHT22;29963;44.594;11.368;2022-11-27T06:23:42;4.70;99.90
44271;DHT22;29963;44.594;11.368;2022-11-27T06:26:10;4.70;99.90
44271;DHT22;29963;44.594;11.368;2022-11-27T06:28:36;4.70;99.90
44271;DHT22;29963;44.594;11.368;2022-11-27T06:31:09;4.60;99.90
44271;DHT22;29963;44.594;11.368;2022-11-27T06:33:35;4.60;99.90
44271;DHT22;29963;44.594;11.368;2022-11-27T06:36:02;4.70;99.90
44271;DHT22;29963;44.594;11.368;2022-11-27T06:38:31;4.60;99.90
44271;DHT22;29963;44.594;11.368;2022-11-27T06:43:29;4.50;99.90
44271;DHT22;29963;44.594;11.368;2022-11-27T06:45:58;4.60;99.90
44271;DHT22;29963;44.594;11.368;2022-11-27T06:48:24;4.50;99.90
44271;DHT22;29963;44.594;11.368;2022-11-27T06:51:09;4.40;99.90
44271;DHT22;29963;44.594;11.368;2022-11-27T06:53:36;4.40;99.90
44271;DHT22;29963;44.594;11.368;2022-11-27T06:56:07;4.40;99.90
44271;DHT22;29963;44.594;11.368;2022-11-27T06:58:34;4.40;99.90
44271;DHT22;29963;44.594;11.368;2022-11-27T07:01:02;4.50;99.90
44271;DHT22;29963;44.594;11.368;2022-11-27T07:03:28;4.50;99.90
44271;DHT22;29963;44.594;11.368;2022-11-27T07:05:57;4.60;99.90
44271;DHT22;29963;44.594;11.368;2022-11-27T07:08:23;4.60;99.90
44271;DHT22;29963;44.594;11.368;2022-11-27T07:10:49;4.60;99.90
44271;DHT22;29963;44.594;11.368;2022-11-27T07:13:15;4.60;99.90
44271;DHT22;29963;44.594;11.368;2022-11-27T07:15:40;4.70;99.90
44271;DHT22;29963;44.594;11.368;2022-11-27T07:18:06;4.60;99.90
44271;DHT22;29963;44.594;11.368;2022-11-27T07:20:32;4.70;99.90
44271;DHT22;29963;44.594;11.368;2022-11-27T07:22:57;4.70;99.90
44271;DHT22;29963;44.594;11.368;2022-11-27T07:25:23;4.70;99.90
44271;DHT22;29963;44.594;11.368;2022-11-27T07:27:48;4.80;99.90
44271;DHT22;29963;44.594;11.368;2022-11-27T07:30:14;4.90;99.90
44271;DHT22;29963;44.594;11.368;2022-11-27T07:32:40;4.90;99.90
44271;DHT22;29963;44.594;11.368;2022-11-27T07:35:06;4.90;99.90
44271;DHT22;29963;44.594;11.368;2022-11-27T07:37:32;5.00;99.90
44271;DHT22;29963;44.594;11.368;2022-11-27T07:39:58;5.00;99.90
44271;DHT22;29963;44.594;11.368;2022-11-27T07:42:24;5.10;99.90
44271;DHT22;29963;44.594;11.368;2022-11-27T07:44:49;5.10;99.90
44271;DHT22;29963;44.594;11.368;2022-11-27T07:47:15;5.20;99.90
44271;DHT22;29963;44.594;11.368;2022-11-27T07:49:41;5.30;99.90
44271;DHT22;29963;44.594;11.368;2022-11-27T07:52:06;5.40;99.90
44271;DHT22;29963;44.594;11.368;2022-11-27T07:54:32;5.40;99.90
44271;DHT22;29963;44.594;11.368;2022-11-27T07:56:58;5.50;99.90
44271;DHT22;29963;44.594;11.368;2022-11-27T07:59:24;5.50;99.90
44271;DHT22;29963;44.594;11.368;2022-11-27T08:01:50;5.60;99.90
44271;DHT22;29963;44.594;11.368;2022-11-27T08:04:16;5.60;99.90
44271;DHT22;29963;44.594;11.368;2022-11-27T08:06:41;5.60;99.90
44271;DHT22;29963;44.594;11.368;2022-11-27T08:09:07;5.60;99.90
44271;DHT22;29963;44.594;11.368;2022-11-27T08:11:33;5.70;99.90
44271;DHT22;29963;44.594;11.368;2022-11-27T08:14:02;5.80;99.90
44271;DHT22;29963;44.594;11.368;2022-11-27T08:16:30;5.80;99.90
44271;DHT22;29963;44.594;11.368;2022-11-27T08:18:56;5.90;99.90
44271;DHT22;29963;44.594;11.368;2022-11-27T08:21:22;6.00;99.90
44271;DHT22;29963;44.594;11.368;2022-11-27T08:23:48;6.10;99.90
44271;DHT22;29963;44.594;11.368;2022-11-27T08:26:14;6.10;99.90
44271;DHT22;29963;44.594;11.368;2022-11-27T08:28:40;6.20;99.90
44271;DHT22;29963;44.594;11.368;2022-11-27T08:31:07;6.20;99.90
44271;DHT22;29963;44.594;11.368;2022-11-27T08:33:34;6.30;99.90
44271;DHT22;29963;44.594;11.368;2022-11-27T08:36:00;6.40;99.90
44271;DHT22;29963;44.594;11.368;2022-11-27T08:38:26;6.40;99.90
44271;DHT22;29963;44.594;11.368;2022-11-27T08:41:02;6.40;99.90
44271;DHT22;29963;44.594;11.368;2022-11-27T08:43:29;6.50;99.90
44271;DHT22;29963;44.594;11.368;2022-11-27T08:45:55;6.60;99.90
44271;DHT22;29963;44.594;11.368;2022-11-27T08:48:21;6.70;99.90
44271;DHT22;29963;44.594;11.368;2022-11-27T08:50:48;6.70;99.90
44271;DHT22;29963;44.594;11.368;2022-11-27T08:53:14;6.70;99.90
44271;DHT22;29963;44.594;11.368;2022-11-27T08:55:40;6.70;99.90
44271;DHT22;29963;44.594;11.368;2022-11-27T08:58:06;6.80;99.90
44271;DHT22;29963;44.594;11.368;2022-11-27T09:00:33;6.90;99.90
44271;DHT22;29963;44.594;11.368;2022-11-27T09:02:59;7.00;99.90
44271;DHT22;29963;44.594;11.368;2022-11-27T09:05:25;7.10;99.90
44271;DHT22;29963;44.594;11.368;2022-11-27T09:07:51;7.10;99.90
44271;DHT22;29963;44.594;11.368;2022-11-27T09:10:17;7.20;99.90
44271;DHT22;29963;44.594;11.368;2022-11-27T09:12:43;7.30;99.90
44271;DHT22;29963;44.594;11.368;2022-11-27T09:15:10;7.30;99.90
44271;DHT22;29963;44.594;11.368;2022-11-27T09:17:36;7.30;99.90
44271;DHT22;29963;44.594;11.368;2022-11-27T09:20:02;7.40;99.90
44271;DHT22;29963;44.594;11.368;2022-11-27T09:22:28;7.50;99.90
44271;DHT22;29963;44.594;11.368;2022-11-27T09:24:53;7.60;99.90
44271;DHT22;29963;44.594;11.368;2022-11-27T09:27:19;7.70;99.90
44271;DHT22;29963;44.594;11.368;2022-11-27T09:29:44;7.80;99.90
44271;DHT22;29963;44.594;11.368;2022-11-27T09:32:10;7.80;99.90
44271;DHT22;29963;44.594;11.368;2022-11-27T09:34:36;7.90;99.90
44271;DHT22;29963;44.594;11.368;2022-11-27T09:37:03;7.90;99.90
44271;DHT22;29963;44.594;11.368;2022-11-27T09:39:29;7.90;99.90
44271;DHT22;29963;44.594;11.368;2022-11-27T09:41:59;8.00;99.90
44271;DHT22;29963;44.594;11.368;2022-11-27T09:44:42;8.00;99.90
44271;DHT22;29963;44.594;11.368;2022-11-27T09:47:24;8.10;99.90
44271;DHT22;29963;44.594;11.368;2022-11-27T09:49:56;8.20;99.90
44271;DHT22;29963;44.594;11.368;2022-11-27T09:52:39;8.20;99.90
44271;DHT22;29963;44.594;11.368;2022-11-27T09:58:10;8.40;99.90
44271;DHT22;29963;44.594;11.368;2022-11-27T10:00:38;8.30;99.90
44271;DHT22;29963;44.594;11.368;2022-11-27T10:03:09;8.40;99.90
44271;DHT22;29963;44.594;11.368;2022-11-27T10:09:05;8.50;99.90
44271;DHT22;29963;44.594;11.368;2022-11-27T10:17:16;8.70;99.90
44271;DHT22;29963;44.594;11.368;2022-11-27T10:22:28;8.80;99.90
44271;DHT22;29963;44.594;11.368;2022-11-27T10:25:10;8.80;99.90
44271;DHT22;29963;44.594;11.368;2022-11-27T10:27:59;8.90;99.90
44271;DHT22;29963;44.594;11.368;2022-11-27T10:30:29;8.90;99.90
44271;DHT22;29963;44.594;11.368;2022-11-27T10:32:57;9.00;99.90
44271;DHT22;29963;44.594;11.368;2022-11-27T10:35:27;9.00;99.90
44271;DHT22;29963;44.594;11.368;2022-11-27T10:38:02;9.10;99.90
44271;DHT22;29963;44.594;11.368;2022-11-27T10:40:37;9.00;99.90
44271;DHT22;29963;44.594;11.368;2022-11-27T10:43:20;9.10;99.90
44271;DHT22;29963;44.594;11.368;2022-11-27T10:45:58;9.10;99.90
44271;DHT22;29963;44.594;11.368;2022-11-27T10:48:26;9.20;99.90
44271;DHT22;29963;44.594;11.368;2022-11-27T10:50:54;9.30;99.90
44271;DHT22;29963;44.594;11.368;2022-11-27T10:53:31;9.30;99.90
44271;DHT22;29963;44.594;11.368;2022-11-27T11:01:07;9.50;99.90
44271;DHT22;29963;44.594;11.368;2022-11-27T11:03:33;9.50;99.90
44271;DHT22;29963;44.594;11.368;2022-11-27T11:06:02;9.50;99.90
44271;DHT22;29963;44.594;11.368;2022-11-27T11:08:30;9.60;99.90
44271;DHT22;29963;44.594;11.368;2022-11-27T11:13:43;9.70;99.90
44271;DHT22;29963;44.594;11.368;2022-11-27T11:18:46;9.80;99.90
44271;DHT22;29963;44.594;11.368;2022-11-27T11:21:26;9.80;99.90
44271;DHT22;29963;44.594;11.368;2022-11-27T11:24:33;9.90;99.90
44271;DHT22;29963;44.594;11.368;2022-11-27T11:27:21;10.00;99.90
44271;DHT22;29963;44.594;11.368;2022-11-27T11:29:52;10.00;99.90
44271;DHT22;29963;44.594;11.368;2022-11-27T11:34:53;10.00;99.90
44271;DHT22;29963;44.594;11.368;2022-11-27T11:42:26;10.10;99.90
44271;DHT22;29963;44.594;11.368;2022-11-27T11:44:54;10.10;99.90
44271;DHT22;29963;44.594;11.368;2022-11-27T11:47:25;10.20;99.90
44271;DHT22;29963;44.594;11.368;2022-11-27T11:49:52;10.20;99.90
44271;DHT22;29963;44.594;11.368;2022-11-27T11:54:58;10.30;99.90
44271;DHT22;29963;44.594;11.368;2022-11-27T12:00:17;10.30;99.90
44271;DHT22;29963;44.594;11.368;2022-11-27T12:05:26;10.50;99.90
44271;DHT22;29963;44.594;11.368;2022-11-27T12:10:32;10.50;99.90
44271;DHT22;29963;44.594;11.368;2022-11-27T12:13:10;10.50;99.90
44271;DHT22;29963;44.594;11.368;2022-11-27T12:21:19;10.70;99.90
44271;DHT22;29963;44.594;11.368;2022-11-27T12:26:43;10.80;99.90
44271;DHT22;29963;44.594;11.368;2022-11-27T12:38:29;11.00;99.90
44271;DHT22;29963;44.594;11.368;2022-11-27T12:43:46;11.00;99.90
44271;DHT22;29963;44.594;11.368;2022-11-27T12:46:23;11.10;99.90
44271;DHT22;29963;44.594;11.368;2022-11-27T12:51:54;11.10;99.90
44271;DHT22;29963;44.594;11.368;2022-11-27T12:54:37;11.20;99.90
44271;DHT22;29963;44.594;11.368;2022-11-27T12:57:14;11.20;99.90
44271;DHT22;29963;44.594;11.368;2022-11-27T12:59:45;11.30;99.90
44271;DHT22;29963;44.594;11.368;2022-11-27T13:05:06;11.50;99.90
44271;DHT22;29963;44.594;11.368;2022-11-27T13:20:43;12.20;99.90
44271;DHT22;29963;44.594;11.368;2022-11-27T13:23:10;12.30;99.90
44271;DHT22;29963;44.594;11.368;2022-11-27T13:25:42;12.40;99.90
44271;DHT22;29963;44.594;11.368;2022-11-27T13:28:19;12.50;99.90
44271;DHT22;29963;44.594;11.368;2022-11-27T13:30:46;12.50;99.90
44271;DHT22;29963;44.594;11.368;2022-11-27T13:33:25;12.60;99.90
44271;DHT22;29963;44.594;11.368;2022-11-27T13:35:53;12.80;99.90
44271;DHT22;29963;44.594;11.368;2022-11-27T13:38:20;13.00;99.90
44271;DHT22;29963;44.594;11.368;2022-11-27T13:40:48;13.10;99.90
44271;DHT22;29963;44.594;11.368;2022-11-27T13:46:09;13.50;99.90
44271;DHT22;29963;44.594;11.368;2022-11-27T13:48:39;13.70;99.90
44271;DHT22;29963;44.594;11.368;2022-11-27T13:51:09;14.00;99.90
44271;DHT22;29963;44.594;11.368;2022-11-27T13:53:40;14.20;99.90
44271;DHT22;29963;44.594;11.368;2022-11-27T13:56:07;14.30;99.90
44271;DHT22;29963;44.594;11.368;2022-11-27T13:58:41;14.40;99.90
44271;DHT22;29963;44.594;11.368;2022-11-27T14:03:41;14.80;99.90
44271;DHT22;29963;44.594;11.368;2022-11-27T14:06:23;14.70;99.90
44271;DHT22;29963;44.594;11.368;2022-11-27T14:14:19;14.60;99.90
44271;DHT22;29963;44.594;11.368;2022-11-27T14:19:40;14.80;99.90
44271;DHT22;29963;44.594;11.368;2022-11-27T14:22:15;14.90;99.90
44271;DHT22;29963;44.594;11.368;2022-11-27T14:24:41;15.10;99.90
44271;DHT22;29963;44.594;11.368;2022-11-27T14:27:25;15.30;99.90
44271;DHT22;29963;44.594;11.368;2022-11-27T14:29:52;15.40;99.90
44271;DHT22;29963;44.594;11.368;2022-11-27T14:32:19;15.50;99.90
44271;DHT22;29963;44.594;11.368;2022-11-27T14:34:46;15.60;99.90
44271;DHT22;29963;44.594;11.368;2022-11-27T14:37:21;15.60;99.90
44271;DHT22;29963;44.594;11.368;2022-11-27T14:39:47;15.50;99.90
44271;DHT22;29963;44.594;11.368;2022-11-27T14:42:26;15.60;99.90
44271;DHT22;29963;44.594;11.368;2022-11-27T14:45:09;15.60;99.90
44271;DHT22;29963;44.594;11.368;2022-11-27T14:47:36;15.80;99.90
44271;DHT22;29963;44.594;11.368;2022-11-27T14:50:03;15.90;99.90
44271;DHT22;29963;44.594;11.368;2022-11-27T14:52:29;16.00;99.90
44271;DHT22;29963;44.594;11.368;2022-11-27T14:54:56;16.00;99.90
44271;DHT22;29963;44.594;11.368;2022-11-27T14:57:26;15.80;99.90
44271;DHT22;29963;44.594;11.368;2022-11-27T15:00:22;15.50;99.90
44271;DHT22;29963;44.594;11.368;2022-11-27T15:03:09;15.30;99.90
44271;DHT22;29963;44.594;11.368;2022-11-27T15:05:36;15.10;99.90
44271;DHT22;29963;44.594;11.368;2022-11-27T15:08:03;14.70;99.90
44271;DHT22;29963;44.594;11.368;2022-11-27T15:10:37;14.30;99.90
44271;DHT22;29963;44.594;11.368;2022-11-27T15:13:06;14.10;99.90
44271;DHT22;29963;44.594;11.368;2022-11-27T15:15:38;13.90;99.90
44271;DHT22;29963;44.594;11.368;2022-11-27T15:18:06;13.60;99.90
44271;DHT22;29963;44.594;11.368;2022-11-27T15:20:34;13.40;99.90
44271;DHT22;29963;44.594;11.368;2022-11-27T15:23:00;13.20;99.90
44271;DHT22;29963;44.594;11.368;2022-11-27T15:25:39;13.00;99.90
44271;DHT22;29963;44.594;11.368;2022-11-27T15:28:32;12.90;99.90
44271;DHT22;29963;44.594;11.368;2022-11-27T15:30:59;12.70;99.90
44271;DHT22;29963;44.594;11.368;2022-11-27T15:33:32;12.50;99.90
44271;DHT22;29963;44.594;11.368;2022-11-27T15:36:40;12.30;99.90
44271;DHT22;29963;44.594;11.368;2022-11-27T15:39:21;12.20;99.90
44271;DHT22;29963;44.594;11.368;2022-11-27T15:41:53;12.00;99.90
44271;DHT22;29963;44.594;11.368;2022-11-27T15:44:19;11.90;99.90
44271;DHT22;29963;44.594;11.368;2022-11-27T15:46:46;11.90;99.90
44271;DHT22;29963;44.594;11.368;2022-11-27T15:49:13;11.80;99.90
44271;DHT22;29963;44.594;11.368;2022-11-27T15:51:39;11.70;99.90
44271;DHT22;29963;44.594;11.368;2022-11-27T15:54:05;11.50;99.90
44271;DHT22;29963;44.594;11.368;2022-11-27T15:56:30;11.40;99.90
44271;DHT22;29963;44.594;11.368;2022-11-27T15:58:56;11.40;99.90
44271;DHT22;29963;44.594;11.368;2022-11-27T16:01:22;11.30;99.90
44271;DHT22;29963;44.594;11.368;2022-11-27T16:03:48;11.30;99.90
44271;DHT22;29963;44.594;11.368;2022-11-27T16:06:13;11.20;99.90
44271;DHT22;29963;44.594;11.368;2022-11-27T16:08:39;11.20;99.90
44271;DHT22;29963;44.594;11.368;2022-11-27T16:11:09;11.10;99.90
44271;DHT22;29963;44.594;11.368;2022-11-27T16:13:39;11.00;99.90
44271;DHT22;29963;44.594;11.368;2022-11-27T16:16:06;10.80;99.90
44271;DHT22;29963;44.594;11.368;2022-11-27T16:18:33;10.70;99.90
44271;DHT22;29963;44.594;11.368;2022-11-27T16:21:07;10.70;99.90
44271;DHT22;29963;44.594;11.368;2022-11-27T16:23:33;10.60;99.90
44271;DHT22;29963;44.594;11.368;2022-11-27T16:25:59;10.50;99.90
44271;DHT22;29963;44.594;11.368;2022-11-27T16:28:28;10.40;99.90
44271;DHT22;29963;44.594;11.368;2022-11-27T16:30:56;10.40;99.90
44271;DHT22;29963;44.594;11.368;2022-11-27T16:33:25;10.40;99.90
44271;DHT22;29963;44.594;11.368;2022-11-27T16:35:50;10.40;99.90
44271;DHT22;29963;44.594;11.368;2022-11-27T16:38:16;10.40;99.90
44271;DHT22;29963;44.594;11.368;2022-11-27T16:40:42;10.40;99.90
44271;DHT22;29963;44.594;11.368;2022-11-27T16:43:08;10.40;99.90
44271;DHT22;29963;44.594;11.368;2022-11-27T16:45:36;10.30;99.90
44271;DHT22;29963;44.594;11.368;2022-11-27T16:48:03;10.30;99.90
44271;DHT22;29963;44.594;11.368;2022-11-27T16:50:28;10.20;99.90
44271;DHT22;29963;44.594;11.368;2022-11-27T16:52:55;10.10;99.90
44271;DHT22;29963;44.594;11.368;2022-11-27T16:55:22;10.10;99.90
44271;DHT22;29963;44.594;11.368;2022-11-27T16:57:48;10.10;99.90
44271;DHT22;29963;44.594;11.368;2022-11-27T17:00:14;10.00;99.90
44271;DHT22;29963;44.594;11.368;2022-11-27T17:02:40;10.00;99.90
44271;DHT22;29963;44.594;11.368;2022-11-27T17:05:06;10.00;99.90
44271;DHT22;29963;44.594;11.368;2022-11-27T17:07:32;10.00;99.90
44271;DHT22;29963;44.594;11.368;2022-11-27T17:09:57;10.00;99.90
44271;DHT22;29963;44.594;11.368;2022-11-27T17:12:23;9.90;99.90
44271;DHT22;29963;44.594;11.368;2022-11-27T17:14:49;9.80;99.90
44271;DHT22;29963;44.594;11.368;2022-11-27T17:17:14;9.80;99.90
44271;DHT22;29963;44.594;11.368;2022-11-27T17:19:40;9.70;99.90
44271;DHT22;29963;44.594;11.368;2022-11-27T17:22:06;9.60;99.90
44271;DHT22;29963;44.594;11.368;2022-11-27T17:24:31;9.60;99.90
44271;DHT22;29963;44.594;11.368;2022-11-27T17:27:00;9.50;99.90
44271;DHT22;29963;44.594;11.368;2022-11-27T17:29:26;9.50;99.90
44271;DHT22;29963;44.594;11.368;2022-11-27T17:31:51;9.50;99.90
44271;DHT22;29963;44.594;11.368;2022-11-27T17:34:18;9.40;99.90
44271;DHT22;29963;44.594;11.368;2022-11-27T17:36:45;9.40;99.90
44271;DHT22;29963;44.594;11.368;2022-11-27T17:39:12;9.40;99.90
44271;DHT22;29963;44.594;11.368;2022-11-27T17:41:39;9.40;99.90
44271;DHT22;29963;44.594;11.368;2022-11-27T17:44:05;9.40;99.90
44271;DHT22;29963;44.594;11.368;2022-11-27T17:46:31;9.40;99.90